Time,TemperatureF,DewpointF,PressureIn,WindDirection,WindDirectionDegrees,WindSpeedMPH,WindSpeedGustMPH,Humidity,HourlyPrecipIn,Conditions,Clouds,dailyrainin,SoftwareType,DateUTC
2018-05-25 00:04:00,70.8,66.4,30.10,South,179,16.0,16.0,86,0.00,,,0.00,Wunderground v.1.15,2018-05-25 04:04:00,
2018-05-25 00:09:00,70.7,66.0,30.10,South,188,13.0,16.0,85,0.00,,,0.00,Wunderground v.1.15,2018-05-25 04:09:00,
2018-05-25 00:14:00,70.8,66.4,30.10,South,174,13.0,14.0,86,0.00,,,0.00,Wunderground v.1.15,2018-05-25 04:14:00,
2018-05-25 00:19:00,70.8,66.4,30.10,South,184,12.0,14.0,86,0.00,,,0.00,Wunderground v.1.15,2018-05-25 04:19:00,
2018-05-25 00:25:00,70.6,66.2,30.10,SSW,192,15.0,15.0,86,0.00,,,0.00,Wunderground v.1.15,2018-05-25 04:25:00,
2018-05-25 00:30:00,70.6,66.2,30.10,South,177,13.0,13.0,86,0.00,,,0.00,Wunderground v.1.15,2018-05-25 04:30:00,
2018-05-25 00:35:00,70.6,66.5,30.10,South,188,11.0,13.0,87,0.00,,,0.00,Wunderground v.1.15,2018-05-25 04:35:00,
2018-05-25 00:40:00,70.5,66.4,30.10,South,184,10.0,12.0,87,0.00,,,0.00,Wunderground v.1.15,2018-05-25 04:40:00,
2018-05-25 00:46:00,70.3,66.6,30.10,South,180,10.0,14.0,88,0.00,,,0.00,Wunderground v.1.15,2018-05-25 04:46:00,
2018-05-25 00:51:00,70.2,66.5,30.10,SSW,192,9.0,11.0,88,0.00,,,0.00,Wunderground v.1.15,2018-05-25 04:51:00,
2018-05-25 00:57:00,70.1,66.4,30.10,SSW,192,11.0,12.0,88,0.00,,,0.00,Wunderground v.1.15,2018-05-25 04:57:00,
2018-05-25 01:02:00,70.0,66.3,30.09,SSW,192,11.0,12.0,88,0.00,,,0.00,Wunderground v.1.15,2018-05-25 05:02:00,
2018-05-25 01:08:00,69.9,66.2,30.09,South,191,12.0,13.0,88,0.00,,,0.00,Wunderground v.1.15,2018-05-25 05:08:00,
2018-05-25 01:13:00,69.9,66.2,30.09,South,189,14.0,14.0,88,0.00,,,0.00,Wunderground v.1.15,2018-05-25 05:13:00,
2018-05-25 01:18:00,69.9,66.2,30.09,South,184,11.0,14.0,88,0.00,,,0.00,Wunderground v.1.15,2018-05-25 05:18:00,
2018-05-25 01:23:00,69.8,66.1,30.09,South,190,11.0,14.0,88,0.00,,,0.00,Wunderground v.1.15,2018-05-25 05:23:00,
2018-05-25 01:28:00,69.8,66.4,30.09,South,188,10.0,14.0,89,0.00,,,0.00,Wunderground v.1.15,2018-05-25 05:28:00,
2018-05-25 01:33:00,69.7,66.3,30.09,South,184,14.0,14.0,89,0.00,,,0.00,Wunderground v.1.15,2018-05-25 05:33:00,
2018-05-25 01:38:00,69.7,66.3,30.08,SSW,198,11.0,14.0,89,0.00,,,0.00,Wunderground v.1.15,2018-05-25 05:38:00,
2018-05-25 01:43:00,69.7,66.3,30.08,South,190,9.0,11.0,89,0.00,,,0.00,Wunderground v.1.15,2018-05-25 05:43:00,
2018-05-25 01:49:00,69.6,66.5,30.08,South,187,9.0,11.0,90,0.00,,,0.00,Wunderground v.1.15,2018-05-25 05:49:00,
2018-05-25 01:54:00,69.5,66.4,30.08,SSW,192,9.0,10.0,90,0.00,,,0.00,Wunderground v.1.15,2018-05-25 05:54:00,
2018-05-25 01:59:00,69.5,66.4,30.08,SSW,198,10.0,10.0,90,0.00,,,0.00,Wunderground v.1.15,2018-05-25 05:59:00,
2018-05-25 02:04:00,69.4,66.3,30.08,SSW,194,10.0,12.0,90,0.00,,,0.00,Wunderground v.1.15,2018-05-25 06:04:00,
2018-05-25 02:09:00,69.4,66.3,30.08,SSW,196,10.0,12.0,90,0.00,,,0.00,Wunderground v.1.15,2018-05-25 06:09:00,
2018-05-25 02:14:00,69.4,66.7,30.08,SSW,197,10.0,12.0,91,0.00,,,0.00,Wunderground v.1.15,2018-05-25 06:14:00,
2018-05-25 02:19:00,69.5,66.8,30.07,SSW,198,9.0,12.0,91,0.00,,,0.00,Wunderground v.1.15,2018-05-25 06:19:00,
2018-05-25 02:24:00,69.4,66.7,30.07,SSW,196,9.0,11.0,91,0.00,,,0.00,Wunderground v.1.15,2018-05-25 06:24:00,
2018-05-25 02:29:00,69.4,66.7,30.07,SSW,196,8.0,12.0,91,0.00,,,0.00,Wunderground v.1.15,2018-05-25 06:29:00,
2018-05-25 02:34:00,69.3,66.2,30.08,SSW,192,10.0,12.0,90,0.00,,,0.00,Wunderground v.1.15,2018-05-25 06:34:00,
2018-05-25 02:39:00,69.1,66.0,30.07,SSW,199,12.0,12.0,90,0.00,,,0.00,Wunderground v.1.15,2018-05-25 06:39:00,
2018-05-25 02:44:00,69.1,65.7,30.07,SSW,193,12.0,13.0,89,0.00,,,0.00,Wunderground v.1.15,2018-05-25 06:44:00,
2018-05-25 02:49:00,69.2,65.5,30.07,SSW,207,10.0,13.0,88,0.00,,,0.00,Wunderground v.1.15,2018-05-25 06:49:00,
2018-05-25 02:54:00,69.2,65.2,30.07,SSW,193,11.0,13.0,87,0.00,,,0.00,Wunderground v.1.15,2018-05-25 06:54:00,
2018-05-25 02:59:00,69.1,64.7,30.07,SSW,198,10.0,13.0,86,0.00,,,0.00,Wunderground v.1.15,2018-05-25 06:59:00,
2018-05-25 03:04:00,69.2,64.8,30.07,SSW,192,10.0,11.0,86,0.00,,,0.00,Wunderground v.1.15,2018-05-25 07:04:00,
2018-05-25 03:09:00,69.2,64.8,30.07,SSW,196,8.0,12.0,86,0.00,,,0.00,Wunderground v.1.15,2018-05-25 07:09:00,
2018-05-25 03:14:00,69.1,64.7,30.07,SSW,201,9.0,11.0,86,0.00,,,0.00,Wunderground v.1.15,2018-05-25 07:14:00,
2018-05-25 03:19:00,69.0,64.3,30.06,SSW,194,7.0,11.0,85,0.00,,,0.00,Wunderground v.1.15,2018-05-25 07:19:00,
2018-05-25 03:24:00,69.1,64.7,30.06,SSW,205,7.0,10.0,86,0.00,,,0.00,Wunderground v.1.15,2018-05-25 07:24:00,
2018-05-25 03:29:00,69.2,64.8,30.06,SSW,195,9.0,10.0,86,0.00,,,0.00,Wunderground v.1.15,2018-05-25 07:29:00,
2018-05-25 03:35:00,69.1,65.1,30.06,SSW,198,5.0,10.0,87,0.00,,,0.00,Wunderground v.1.15,2018-05-25 07:35:00,
2018-05-25 03:40:00,69.0,64.6,30.06,South,189,10.0,12.0,86,0.00,,,0.00,Wunderground v.1.15,2018-05-25 07:40:00,
2018-05-25 03:45:00,69.2,64.8,30.06,SSW,195,6.0,10.0,86,0.00,,,0.00,Wunderground v.1.15,2018-05-25 07:45:00,
2018-05-25 03:50:00,69.3,64.9,30.06,SSW,198,5.0,7.0,86,0.00,,,0.00,Wunderground v.1.15,2018-05-25 07:50:00,
2018-05-25 03:55:00,69.3,65.3,30.06,SSW,198,6.0,9.0,87,0.00,,,0.00,Wunderground v.1.15,2018-05-25 07:55:00,
2018-05-25 04:00:00,69.3,65.3,30.06,SSW,201,5.0,6.0,87,0.00,,,0.00,Wunderground v.1.15,2018-05-25 08:00:00,
2018-05-25 04:05:00,69.3,64.9,30.06,SSW,207,7.0,10.0,86,0.00,,,0.00,Wunderground v.1.15,2018-05-25 08:05:00,
2018-05-25 04:10:00,69.4,65.4,30.06,SSW,205,8.0,8.0,87,0.00,,,0.00,Wunderground v.1.15,2018-05-25 08:10:00,
2018-05-25 04:15:00,69.4,65.4,30.06,SSW,208,7.0,10.0,87,0.00,,,0.00,Wunderground v.1.15,2018-05-25 08:15:00,
2018-05-25 04:20:00,69.3,64.9,30.06,SW,221,6.0,9.0,86,0.00,,,0.00,Wunderground v.1.15,2018-05-25 08:20:00,
2018-05-25 04:25:00,69.4,65.0,30.06,SW,215,10.0,11.0,86,0.00,,,0.00,Wunderground v.1.15,2018-05-25 08:25:00,
2018-05-25 04:30:00,69.4,65.0,30.06,SW,216,7.0,8.0,86,0.00,,,0.00,Wunderground v.1.15,2018-05-25 08:30:00,
2018-05-25 04:35:00,69.4,65.4,30.06,SW,217,6.0,10.0,87,0.00,,,0.00,Wunderground v.1.15,2018-05-25 08:35:00,
2018-05-25 04:40:00,69.3,64.9,30.06,SSW,211,8.0,9.0,86,0.00,,,0.00,Wunderground v.1.15,2018-05-25 08:40:00,
2018-05-25 04:45:00,69.4,65.0,30.06,SSW,211,6.0,11.0,86,0.00,,,0.00,Wunderground v.1.15,2018-05-25 08:45:00,
2018-05-25 04:50:00,69.4,65.4,30.06,SSW,212,5.0,9.0,87,0.00,,,0.00,Wunderground v.1.15,2018-05-25 08:50:00,
2018-05-25 04:55:00,69.4,65.4,30.06,SSW,209,4.0,9.0,87,0.00,,,0.00,Wunderground v.1.15,2018-05-25 08:55:00,
2018-05-25 05:00:00,69.3,65.3,30.06,SW,215,6.0,7.0,87,0.00,,,0.00,Wunderground v.1.15,2018-05-25 09:00:00,
2018-05-25 05:05:00,69.3,65.3,30.05,SSW,212,6.0,10.0,87,0.00,,,0.00,Wunderground v.1.15,2018-05-25 09:05:00,
2018-05-25 05:10:00,69.3,65.3,30.05,SSW,208,9.0,9.0,87,0.00,,,0.00,Wunderground v.1.15,2018-05-25 09:10:00,
2018-05-25 05:15:00,69.2,65.2,30.05,SW,217,9.0,11.0,87,0.00,,,0.00,Wunderground v.1.15,2018-05-25 09:15:00,
2018-05-25 05:20:00,69.2,65.2,30.05,SW,215,7.0,10.0,87,0.00,,,0.00,Wunderground v.1.15,2018-05-25 09:20:00,
2018-05-25 05:26:00,69.2,65.2,30.05,SSW,209,10.0,10.0,87,0.00,,,0.00,Wunderground v.1.15,2018-05-25 09:26:00,
2018-05-25 05:30:00,69.1,65.1,30.06,SW,219,10.0,10.0,87,0.00,,,0.00,Wunderground v.1.15,2018-05-25 09:30:00,
2018-05-25 05:35:00,69.2,65.2,30.06,SSW,213,9.0,11.0,87,0.00,,,0.00,Wunderground v.1.15,2018-05-25 09:35:00,
2018-05-25 05:41:00,69.2,64.8,30.06,SW,219,9.0,9.0,86,0.00,,,0.00,Wunderground v.1.15,2018-05-25 09:41:00,
2018-05-25 05:46:00,69.1,64.4,30.06,SW,223,9.0,12.0,85,0.00,,,0.00,Wunderground v.1.15,2018-05-25 09:46:00,
2018-05-25 05:51:00,69.2,64.8,30.06,SW,215,11.0,11.0,86,0.00,,,0.00,Wunderground v.1.15,2018-05-25 09:51:00,
2018-05-25 05:56:00,69.1,64.7,30.06,SW,222,7.0,11.0,86,0.00,,,0.00,Wunderground v.1.15,2018-05-25 09:56:00,
2018-05-25 06:01:00,69.1,65.1,30.06,SW,223,7.0,9.0,87,0.00,,,0.00,Wunderground v.1.15,2018-05-25 10:01:00,
2018-05-25 06:06:00,68.9,64.5,30.06,SW,225,9.0,12.0,86,0.00,,,0.00,Wunderground v.1.15,2018-05-25 10:06:00,
2018-05-25 06:11:00,68.8,64.1,30.06,SW,232,6.0,9.0,85,0.00,,,0.00,Wunderground v.1.15,2018-05-25 10:11:00,
2018-05-25 06:16:00,68.9,64.2,30.07,SSW,213,7.0,11.0,85,0.00,,,0.00,Wunderground v.1.15,2018-05-25 10:16:00,
2018-05-25 06:21:00,68.9,64.2,30.07,SW,225,9.0,11.0,85,0.00,,,0.00,Wunderground v.1.15,2018-05-25 10:21:00,
2018-05-25 06:26:00,68.9,64.2,30.06,SW,219,8.0,11.0,85,0.00,,,0.00,Wunderground v.1.15,2018-05-25 10:26:00,
2018-05-25 06:31:00,69.0,64.3,30.07,SSW,211,9.0,10.0,85,0.00,,,0.00,Wunderground v.1.15,2018-05-25 10:31:00,
2018-05-25 06:36:00,68.9,64.2,30.07,SW,219,10.0,12.0,85,0.00,,,0.00,Wunderground v.1.15,2018-05-25 10:36:00,
2018-05-25 06:41:00,68.8,64.4,30.07,SSW,210,7.0,10.0,86,0.00,,,0.00,Wunderground v.1.15,2018-05-25 10:41:00,
2018-05-25 06:46:00,68.9,64.5,30.07,SSW,204,9.0,11.0,86,0.00,,,0.00,Wunderground v.1.15,2018-05-25 10:46:00,
2018-05-25 06:51:00,68.8,64.4,30.07,SSW,213,10.0,11.0,86,0.00,,,0.00,Wunderground v.1.15,2018-05-25 10:51:00,
2018-05-25 06:56:00,68.9,64.5,30.06,SSW,211,6.0,11.0,86,0.00,,,0.00,Wunderground v.1.15,2018-05-25 10:56:00,
2018-05-25 07:01:00,68.8,64.4,30.06,SSW,212,7.0,10.0,86,0.00,,,0.00,Wunderground v.1.15,2018-05-25 11:01:00,
2018-05-25 07:06:00,68.8,64.4,30.06,SW,227,9.0,13.0,86,0.00,,,0.00,Wunderground v.1.15,2018-05-25 11:06:00,
2018-05-25 07:11:00,68.9,64.2,30.06,SW,228,5.0,12.0,85,0.00,,,0.00,Wunderground v.1.15,2018-05-25 11:11:00,
2018-05-25 07:16:00,68.9,64.2,30.06,SW,219,10.0,12.0,85,0.00,,,0.00,Wunderground v.1.15,2018-05-25 11:16:00,
2018-05-25 07:21:00,69.0,64.3,30.06,SW,227,10.0,12.0,85,0.00,,,0.00,Wunderground v.1.15,2018-05-25 11:21:00,
2018-05-25 07:23:00,69.0,64.3,30.06,SW,229,11.0,12.0,85,0.00,,,0.00,Wunderground v.1.15,2018-05-25 11:23:00,
2018-05-25 07:28:00,69.1,64.4,30.06,SW,225,6.0,13.0,85,0.00,,,0.00,Wunderground v.1.15,2018-05-25 11:28:00,
2018-05-25 07:33:00,69.2,64.5,30.06,SW,216,6.0,11.0,85,0.00,,,0.00,Wunderground v.1.15,2018-05-25 11:33:00,
2018-05-25 07:38:00,69.3,64.9,30.06,SW,229,9.0,11.0,86,0.00,,,0.00,Wunderground v.1.15,2018-05-25 11:38:00,
2018-05-25 07:43:00,69.3,64.9,30.06,SW,224,9.0,10.0,86,0.00,,,0.00,Wunderground v.1.15,2018-05-25 11:43:00,
2018-05-25 07:48:00,69.3,64.9,30.06,SW,223,10.0,12.0,86,0.00,,,0.00,Wunderground v.1.15,2018-05-25 11:48:00,
2018-05-25 07:53:00,69.4,65.0,30.06,SW,229,11.0,12.0,86,0.00,,,0.00,Wunderground v.1.15,2018-05-25 11:53:00,
2018-05-25 07:58:00,69.5,65.1,30.06,SW,234,10.0,12.0,86,0.00,,,0.00,Wunderground v.1.15,2018-05-25 11:58:00,
2018-05-25 08:03:00,69.4,65.0,30.06,SSW,208,9.0,11.0,86,0.00,,,0.00,Wunderground v.1.15,2018-05-25 12:03:00,